sensor_id;sensor_type;location;lat;lon;timestamp;temperature;humidity
60868;DHT22;46702;48.370;10.794;2023-05-20T00:02:05;11.50;99.90
60868;DHT22;46702;48.370;10.794;2023-05-20T00:04:31;11.50;99.90
60868;DHT22;46702;48.370;10.794;2023-05-20T00:06:56;11.50;99.90
60868;DHT22;46702;48.370;10.794;2023-05-20T00:09:22;11.50;99.90
60868;DHT22;46702;48.370;10.794;2023-05-20T00:11:47;11.40;99.90
60868;DHT22;46702;48.370;10.794;2023-05-20T00:14:13;11.40;99.90
60868;DHT22;46702;48.370;10.794;2023-05-20T00:16:39;11.30;99.90
60868;DHT22;46702;48.370;10.794;2023-05-20T00:19:04;11.30;99.90
60868;DHT22;46702;48.370;10.794;2023-05-20T00:21:30;11.30;99.90
60868;DHT22;46702;48.370;10.794;2023-05-20T00:23:56;11.30;99.90
60868;DHT22;46702;48.370;10.794;2023-05-20T00:26:22;11.30;99.90
60868;DHT22;46702;48.370;10.794;2023-05-20T00:28:48;11.30;99.90
60868;DHT22;46702;48.370;10.794;2023-05-20T00:31:13;11.30;99.90
60868;DHT22;46702;48.370;10.794;2023-05-20T00:33:39;11.30;99.90
60868;DHT22;46702;48.370;10.794;2023-05-20T00:36:05;11.30;99.90
60868;DHT22;46702;48.370;10.794;2023-05-20T00:38:30;11.30;99.90
60868;DHT22;46702;48.370;10.794;2023-05-20T00:40:56;11.20;99.90
60868;DHT22;46702;48.370;10.794;2023-05-20T00:43:21;11.20;99.90
60868;DHT22;46702;48.370;10.794;2023-05-20T00:45:50;11.20;99.90
60868;DHT22;46702;48.370;10.794;2023-05-20T00:48:16;11.30;99.90
60868;DHT22;46702;48.370;10.794;2023-05-20T00:50:42;11.30;99.90
60868;DHT22;46702;48.370;10.794;2023-05-20T00:53:08;11.30;99.90
60868;DHT22;46702;48.370;10.794;2023-05-20T00:55:34;11.30;99.90
60868;DHT22;46702;48.370;10.794;2023-05-20T00:58:00;11.20;99.90
60868;DHT22;46702;48.370;10.794;2023-05-20T01:00:26;11.20;99.90
60868;DHT22;46702;48.370;10.794;2023-05-20T01:02:52;11.20;99.90
60868;DHT22;46702;48.370;10.794;2023-05-20T01:05:19;11.20;99.90
60868;DHT22;46702;48.370;10.794;2023-05-20T01:07:45;11.10;99.90
60868;DHT22;46702;48.370;10.794;2023-05-20T01:10:11;11.00;99.90
60868;DHT22;46702;48.370;10.794;2023-05-20T01:12:44;10.90;99.90
60868;DHT22;46702;48.370;10.794;2023-05-20T01:15:11;10.80;99.90
60868;DHT22;46702;48.370;10.794;2023-05-20T01:17:43;10.80;99.90
60868;DHT22;46702;48.370;10.794;2023-05-20T01:20:10;10.90;99.90
60868;DHT22;46702;48.370;10.794;2023-05-20T01:22:57;10.80;99.90
60868;DHT22;46702;48.370;10.794;2023-05-20T01:25:23;10.90;99.90
60868;DHT22;46702;48.370;10.794;2023-05-20T01:27:50;10.90;99.90
60868;DHT22;46702;48.370;10.794;2023-05-20T01:30:17;11.00;99.90
60868;DHT22;46702;48.370;10.794;2023-05-20T01:32:47;11.00;99.90
60868;DHT22;46702;48.370;10.794;2023-05-20T01:35:15;11.00;99.90
60868;DHT22;46702;48.370;10.794;2023-05-20T01:37:42;10.90;99.90
60868;DHT22;46702;48.370;10.794;2023-05-20T01:40:09;11.00;99.90
60868;DHT22;46702;48.370;10.794;2023-05-20T01:42:36;11.00;99.90
60868;DHT22;46702;48.370;10.794;2023-05-20T01:45:03;11.00;99.90
60868;DHT22;46702;48.370;10.794;2023-05-20T01:47:29;11.00;99.90
60868;DHT22;46702;48.370;10.794;2023-05-20T01:49:55;11.00;99.90
60868;DHT22;46702;48.370;10.794;2023-05-20T01:52:22;11.10;99.90
60868;DHT22;46702;48.370;10.794;2023-05-20T01:54:47;11.10;99.90
60868;DHT22;46702;48.370;10.794;2023-05-20T01:57:22;11.10;99.90
60868;DHT22;46702;48.370;10.794;2023-05-20T01:59:48;11.10;99.90
60868;DHT22;46702;48.370;10.794;2023-05-20T02:02:14;11.10;99.90
60868;DHT22;46702;48.370;10.794;2023-05-20T02:04:42;11.10;99.90
60868;DHT22;46702;48.370;10.794;2023-05-20T02:07:08;11.20;99.90
60868;DHT22;46702;48.370;10.794;2023-05-20T02:09:34;11.10;99.90
60868;DHT22;46702;48.370;10.794;2023-05-20T02:11:59;11.20;99.90
60868;DHT22;46702;48.370;10.794;2023-05-20T02:14:25;11.20;99.90
60868;DHT22;46702;48.370;10.794;2023-05-20T02:16:51;11.20;99.90
60868;DHT22;46702;48.370;10.794;2023-05-20T02:19:16;11.20;99.90
60868;DHT22;46702;48.370;10.794;2023-05-20T02:21:48;11.20;99.90
60868;DHT22;46702;48.370;10.794;2023-05-20T02:24:13;11.30;99.90
60868;DHT22;46702;48.370;10.794;2023-05-20T02:26:39;11.30;99.90
60868;DHT22;46702;48.370;10.794;2023-05-20T02:29:05;11.30;99.90
60868;DHT22;46702;48.370;10.794;2023-05-20T02:31:31;11.30;99.90
60868;DHT22;46702;48.370;10.794;2023-05-20T02:33:56;11.30;99.90
60868;DHT22;46702;48.370;10.794;2023-05-20T02:36:22;11.30;99.90
60868;DHT22;46702;48.370;10.794;2023-05-20T02:38:47;11.30;99.90
60868;DHT22;46702;48.370;10.794;2023-05-20T02:41:13;11.40;99.90
60868;DHT22;46702;48.370;10.794;2023-05-20T02:43:39;11.40;99.90
60868;DHT22;46702;48.370;10.794;2023-05-20T02:46:05;11.50;99.90
60868;DHT22;46702;48.370;10.794;2023-05-20T02:48:31;11.50;99.90
60868;DHT22;46702;48.370;10.794;2023-05-20T02:50:58;11.50;99.90
60868;DHT22;46702;48.370;10.794;2023-05-20T02:53:23;11.50;99.90
60868;DHT22;46702;48.370;10.794;2023-05-20T02:55:49;11.50;99.90
60868;DHT22;46702;48.370;10.794;2023-05-20T02:58:15;11.60;99.90
60868;DHT22;46702;48.370;10.794;2023-05-20T03:00:42;11.60;99.90
60868;DHT22;46702;48.370;10.794;2023-05-20T03:03:08;11.60;99.90
60868;DHT22;46702;48.370;10.794;2023-05-20T03:05:38;11.60;99.90
60868;DHT22;46702;48.370;10.794;2023-05-20T03:08:09;11.60;99.90
60868;DHT22;46702;48.370;10.794;2023-05-20T03:10:38;11.60;99.90
60868;DHT22;46702;48.370;10.794;2023-05-20T03:13:05;11.60;99.90
60868;DHT22;46702;48.370;10.794;2023-05-20T03:15:39;11.60;99.90
60868;DHT22;46702;48.370;10.794;2023-05-20T03:18:05;11.60;99.90
60868;DHT22;46702;48.370;10.794;2023-05-20T03:20:33;11.70;99.90
60868;DHT22;46702;48.370;10.794;2023-05-20T03:23:07;11.70;99.90
60868;DHT22;46702;48.370;10.794;2023-05-20T03:25:34;11.70;99.90
60868;DHT22;46702;48.370;10.794;2023-05-20T03:27:59;11.70;99.90
60868;DHT22;46702;48.370;10.794;2023-05-20T03:30:26;11.70;99.90
60868;DHT22;46702;48.370;10.794;2023-05-20T03:32:55;11.70;99.90
60868;DHT22;46702;48.370;10.794;2023-05-20T03:35:22;11.70;99.90
60868;DHT22;46702;48.370;10.794;2023-05-20T03:37:47;11.70;99.90
60868;DHT22;46702;48.370;10.794;2023-05-20T03:40:13;11.80;99.90
60868;DHT22;46702;48.370;10.794;2023-05-20T03:42:39;11.80;99.90
60868;DHT22;46702;48.370;10.794;2023-05-20T03:45:05;11.80;99.90
60868;DHT22;46702;48.370;10.794;2023-05-20T03:47:31;11.80;99.90
60868;DHT22;46702;48.370;10.794;2023-05-20T03:49:57;11.70;99.90
60868;DHT22;46702;48.370;10.794;2023-05-20T03:52:22;11.70;99.90
60868;DHT22;46702;48.370;10.794;2023-05-20T03:54:48;11.70;99.90
60868;DHT22;46702;48.370;10.794;2023-05-20T03:57:14;11.80;99.90
60868;DHT22;46702;48.370;10.794;2023-05-20T03:59:39;11.80;99.90
60868;DHT22;46702;48.370;10.794;2023-05-20T04:02:06;11.80;99.90
60868;DHT22;46702;48.370;10.794;2023-05-20T04:04:32;11.80;99.90
60868;DHT22;46702;48.370;10.794;2023-05-20T04:06:58;11.70;99.90
60868;DHT22;46702;48.370;10.794;2023-05-20T04:09:25;11.70;99.90
60868;DHT22;46702;48.370;10.794;2023-05-20T04:11:51;11.70;99.90
60868;DHT22;46702;48.370;10.794;2023-05-20T04:14:17;11.70;99.90
60868;DHT22;46702;48.370;10.794;2023-05-20T04:16:43;11.80;99.90
60868;DHT22;46702;48.370;10.794;2023-05-20T04:19:10;11.80;99.90
60868;DHT22;46702;48.370;10.794;2023-05-20T04:21:35;11.80;99.90
60868;DHT22;46702;48.370;10.794;2023-05-20T04:24:01;11.80;99.90
60868;DHT22;46702;48.370;10.794;2023-05-20T04:26:27;11.80;99.90
60868;DHT22;46702;48.370;10.794;2023-05-20T04:28:53;11.80;99.90
60868;DHT22;46702;48.370;10.794;2023-05-20T04:31:19;11.80;99.90
60868;DHT22;46702;48.370;10.794;2023-05-20T04:33:52;11.80;99.90
60868;DHT22;46702;48.370;10.794;2023-05-20T04:36:18;11.80;99.90
60868;DHT22;46702;48.370;10.794;2023-05-20T04:38:44;11.80;99.90
60868;DHT22;46702;48.370;10.794;2023-05-20T04:41:10;11.80;99.90
60868;DHT22;46702;48.370;10.794;2023-05-20T04:43:35;11.80;99.90
60868;DHT22;46702;48.370;10.794;2023-05-20T04:46:04;11.80;99.90
60868;DHT22;46702;48.370;10.794;2023-05-20T04:48:30;11.80;99.90
60868;DHT22;46702;48.370;10.794;2023-05-20T04:50:56;11.80;99.90
60868;DHT22;46702;48.370;10.794;2023-05-20T04:53:22;11.80;99.90
60868;DHT22;46702;48.370;10.794;2023-05-20T04:55:48;11.90;99.90
60868;DHT22;46702;48.370;10.794;2023-05-20T04:58:18;11.90;99.90
60868;DHT22;46702;48.370;10.794;2023-05-20T05:00:44;11.90;99.90
60868;DHT22;46702;48.370;10.794;2023-05-20T05:03:10;11.90;99.90
60868;DHT22;46702;48.370;10.794;2023-05-20T05:05:39;11.90;99.90
60868;DHT22;46702;48.370;10.794;2023-05-20T05:08:05;11.90;99.90
60868;DHT22;46702;48.370;10.794;2023-05-20T05:10:32;11.90;99.90
60868;DHT22;46702;48.370;10.794;2023-05-20T05:12:57;12.00;99.90
60868;DHT22;46702;48.370;10.794;2023-05-20T05:15:24;12.00;99.90
60868;DHT22;46702;48.370;10.794;2023-05-20T05:17:49;12.00;99.90
60868;DHT22;46702;48.370;10.794;2023-05-20T05:20:16;12.10;99.90
60868;DHT22;46702;48.370;10.794;2023-05-20T05:22:42;12.10;99.90
60868;DHT22;46702;48.370;10.794;2023-05-20T05:25:08;12.00;99.90
60868;DHT22;46702;48.370;10.794;2023-05-20T05:27:34;12.10;99.90
60868;DHT22;46702;48.370;10.794;2023-05-20T05:30:04;12.10;99.90
60868;DHT22;46702;48.370;10.794;2023-05-20T05:32:30;12.10;99.90
60868;DHT22;46702;48.370;10.794;2023-05-20T05:34:56;12.10;99.90
60868;DHT22;46702;48.370;10.794;2023-05-20T05:37:22;12.10;99.90
60868;DHT22;46702;48.370;10.794;2023-05-20T05:39:48;12.00;99.90
60868;DHT22;46702;48.370;10.794;2023-05-20T05:42:13;12.10;99.90
60868;DHT22;46702;48.370;10.794;2023-05-20T05:44:39;12.10;99.90
60868;DHT22;46702;48.370;10.794;2023-05-20T05:47:05;12.10;99.90
60868;DHT22;46702;48.370;10.794;2023-05-20T05:49:31;12.10;99.90
60868;DHT22;46702;48.370;10.794;2023-05-20T05:51:57;12.20;99.90
60868;DHT22;46702;48.370;10.794;2023-05-20T05:54:23;12.20;99.90
60868;DHT22;46702;48.370;10.794;2023-05-20T05:56:53;12.20;99.90
60868;DHT22;46702;48.370;10.794;2023-05-20T05:59:21;12.10;99.90
60868;DHT22;46702;48.370;10.794;2023-05-20T06:01:46;12.10;99.90
60868;DHT22;46702;48.370;10.794;2023-05-20T06:04:12;12.10;99.90
60868;DHT22;46702;48.370;10.794;2023-05-20T06:06:37;12.10;99.90
60868;DHT22;46702;48.370;10.794;2023-05-20T06:09:03;12.10;99.90
60868;DHT22;46702;48.370;10.794;2023-05-20T06:11:29;12.10;99.90
60868;DHT22;46702;48.370;10.794;2023-05-20T06:13:54;12.20;99.90
60868;DHT22;46702;48.370;10.794;2023-05-20T06:16:20;12.20;99.90
60868;DHT22;46702;48.370;10.794;2023-05-20T06:18:46;12.20;99.90
60868;DHT22;46702;48.370;10.794;2023-05-20T06:21:14;12.20;99.90
60868;DHT22;46702;48.370;10.794;2023-05-20T06:23:40;12.30;99.90
60868;DHT22;46702;48.370;10.794;2023-05-20T06:26:06;12.30;99.90
60868;DHT22;46702;48.370;10.794;2023-05-20T06:28:31;12.30;99.90
60868;DHT22;46702;48.370;10.794;2023-05-20T06:30:57;12.30;99.90
60868;DHT22;46702;48.370;10.794;2023-05-20T06:33:23;12.30;99.90
60868;DHT22;46702;48.370;10.794;2023-05-20T06:35:51;12.40;99.90
60868;DHT22;46702;48.370;10.794;2023-05-20T06:38:17;12.40;99.90
60868;DHT22;46702;48.370;10.794;2023-05-20T06:40:43;12.40;99.90
60868;DHT22;46702;48.370;10.794;2023-05-20T06:43:08;12.50;99.90
60868;DHT22;46702;48.370;10.794;2023-05-20T06:45:34;12.50;99.90
60868;DHT22;46702;48.370;10.794;2023-05-20T06:47:59;12.50;99.90
60868;DHT22;46702;48.370;10.794;2023-05-20T06:50:25;12.60;99.90
60868;DHT22;46702;48.370;10.794;2023-05-20T06:52:52;12.50;99.90
60868;DHT22;46702;48.370;10.794;2023-05-20T06:55:18;12.60;99.90
60868;DHT22;46702;48.370;10.794;2023-05-20T06:57:44;12.60;99.90
60868;DHT22;46702;48.370;10.794;2023-05-20T07:00:10;12.60;99.90
60868;DHT22;46702;48.370;10.794;2023-05-20T07:02:38;12.70;99.90
60868;DHT22;46702;48.370;10.794;2023-05-20T07:05:04;12.70;99.90
60868;DHT22;46702;48.370;10.794;2023-05-20T07:07:30;12.80;99.90
60868;DHT22;46702;48.370;10.794;2023-05-20T07:09:56;12.80;99.90
60868;DHT22;46702;48.370;10.794;2023-05-20T07:12:22;12.80;99.90
60868;DHT22;46702;48.370;10.794;2023-05-20T07:14:47;12.80;99.90
60868;DHT22;46702;48.370;10.794;2023-05-20T07:17:13;12.80;99.90
60868;DHT22;46702;48.370;10.794;2023-05-20T07:19:39;12.90;99.90
60868;DHT22;46702;48.370;10.794;2023-05-20T07:22:04;12.90;99.90
60868;DHT22;46702;48.370;10.794;2023-05-20T07:24:30;12.90;99.90
60868;DHT22;46702;48.370;10.794;2023-05-20T07:26:56;13.10;99.90
60868;DHT22;46702;48.370;10.794;2023-05-20T07:29:22;13.20;99.90
60868;DHT22;46702;48.370;10.794;2023-05-20T07:31:47;13.30;99.90
60868;DHT22;46702;48.370;10.794;2023-05-20T07:34:13;13.40;99.90
60868;DHT22;46702;48.370;10.794;2023-05-20T07:36:38;13.50;99.90
60868;DHT22;46702;48.370;10.794;2023-05-20T07:39:04;13.50;99.90
60868;DHT22;46702;48.370;10.794;2023-05-20T07:41:30;13.50;99.90
60868;DHT22;46702;48.370;10.794;2023-05-20T07:43:55;13.50;99.90
60868;DHT22;46702;48.370;10.794;2023-05-20T07:46:21;13.50;99.90
60868;DHT22;46702;48.370;10.794;2023-05-20T07:48:47;13.50;99.90
60868;DHT22;46702;48.370;10.794;2023-05-20T07:51:12;13.70;99.90
60868;DHT22;46702;48.370;10.794;2023-05-20T07:53:38;13.80;99.90
60868;DHT22;46702;48.370;10.794;2023-05-20T07:56:04;13.80;99.90
60868;DHT22;46702;48.370;10.794;2023-05-20T07:58:31;13.90;99.90
60868;DHT22;46702;48.370;10.794;2023-05-20T08:00:56;13.90;99.90
60868;DHT22;46702;48.370;10.794;2023-05-20T08:03:22;14.00;99.90
60868;DHT22;46702;48.370;10.794;2023-05-20T08:05:48;14.10;99.90
60868;DHT22;46702;48.370;10.794;2023-05-20T08:08:14;14.10;99.90
60868;DHT22;46702;48.370;10.794;2023-05-20T08:10:40;14.20;99.90
60868;DHT22;46702;48.370;10.794;2023-05-20T08:13:06;14.20;99.90
60868;DHT22;46702;48.370;10.794;2023-05-20T08:15:32;14.30;99.90
60868;DHT22;46702;48.370;10.794;2023-05-20T08:17:57;14.50;99.90
60868;DHT22;46702;48.370;10.794;2023-05-20T08:20:23;14.80;99.90
60868;DHT22;46702;48.370;10.794;2023-05-20T08:22:51;15.10;99.90
60868;DHT22;46702;48.370;10.794;2023-05-20T08:25:17;15.20;99.90
60868;DHT22;46702;48.370;10.794;2023-05-20T08:27:42;15.10;99.90
60868;DHT22;46702;48.370;10.794;2023-05-20T08:30:08;15.00;99.90
60868;DHT22;46702;48.370;10.794;2023-05-20T08:32:35;15.00;99.90
60868;DHT22;46702;48.370;10.794;2023-05-20T08:35:01;15.20;99.90
60868;DHT22;46702;48.370;10.794;2023-05-20T08:37:30;15.30;99.90
60868;DHT22;46702;48.370;10.794;2023-05-20T08:39:56;15.40;99.90
60868;DHT22;46702;48.370;10.794;2023-05-20T08:42:22;15.70;99.90
60868;DHT22;46702;48.370;10.794;2023-05-20T08:44:52;15.70;99.90
60868;DHT22;46702;48.370;10.794;2023-05-20T08:47:20;15.70;99.90
60868;DHT22;46702;48.370;10.794;2023-05-20T08:49:47;15.90;99.90
60868;DHT22;46702;48.370;10.794;2023-05-20T08:52:16;16.00;99.90
60868;DHT22;46702;48.370;10.794;2023-05-20T08:54:47;16.00;99.90
60868;DHT22;46702;48.370;10.794;2023-05-20T08:57:14;16.20;99.90
60868;DHT22;46702;48.370;10.794;2023-05-20T08:59:41;16.30;99.90
60868;DHT22;46702;48.370;10.794;2023-05-20T09:02:08;16.20;99.90
60868;DHT22;46702;48.370;10.794;2023-05-20T09:04:35;16.20;99.90
60868;DHT22;46702;48.370;10.794;2023-05-20T09:07:01;16.40;99.90
60868;DHT22;46702;48.370;10.794;2023-05-20T09:09:28;16.50;99.90
60868;DHT22;46702;48.370;10.794;2023-05-20T09:11:54;16.70;99.90
60868;DHT22;46702;48.370;10.794;2023-05-20T09:14:20;16.80;99.90
60868;DHT22;46702;48.370;10.794;2023-05-20T09:16:46;16.80;99.90
60868;DHT22;46702;48.370;10.794;2023-05-20T09:19:12;16.70;99.90
60868;DHT22;46702;48.370;10.794;2023-05-20T09:21:40;16.80;99.90
60868;DHT22;46702;48.370;10.794;2023-05-20T09:24:06;17.10;99.90
60868;DHT22;46702;48.370;10.794;2023-05-20T09:26:32;17.40;99.90
60868;DHT22;46702;48.370;10.794;2023-05-20T09:28:58;17.70;99.90
60868;DHT22;46702;48.370;10.794;2023-05-20T09:31:29;17.80;99.90
60868;DHT22;46702;48.370;10.794;2023-05-20T09:33:55;17.90;99.90
60868;DHT22;46702;48.370;10.794;2023-05-20T09:36:22;17.90;99.90
60868;DHT22;46702;48.370;10.794;2023-05-20T09:38:51;17.80;99.90
60868;DHT22;46702;48.370;10.794;2023-05-20T09:41:19;17.80;99.90
60868;DHT22;46702;48.370;10.794;2023-05-20T09:43:48;18.00;99.90
60868;DHT22;46702;48.370;10.794;2023-05-20T09:46:14;18.00;99.90
60868;DHT22;46702;48.370;10.794;2023-05-20T09:48:40;17.90;99.90
60868;DHT22;46702;48.370;10.794;2023-05-20T09:51:06;17.90;99.90
60868;DHT22;46702;48.370;10.794;2023-05-20T09:53:32;18.00;99.90
60868;DHT22;46702;48.370;10.794;2023-05-20T09:55:58;18.10;99.90
60868;DHT22;46702;48.370;10.794;2023-05-20T09:58:24;18.20;99.90
60868;DHT22;46702;48.370;10.794;2023-05-20T10:00:52;18.20;99.90
60868;DHT22;46702;48.370;10.794;2023-05-20T10:03:21;18.30;99.90
60868;DHT22;46702;48.370;10.794;2023-05-20T10:06:14;18.40;99.90
60868;DHT22;46702;48.370;10.794;2023-05-20T10:12:06;18.40;99.90
60868;DHT22;46702;48.370;10.794;2023-05-20T10:19:57;18.60;99.90
60868;DHT22;46702;48.370;10.794;2023-05-20T10:22:27;18.60;99.90
60868;DHT22;46702;48.370;10.794;2023-05-20T10:25:04;18.50;99.90
60868;DHT22;46702;48.370;10.794;2023-05-20T10:27:46;18.40;99.90
60868;DHT22;46702;48.370;10.794;2023-05-20T10:30:19;18.60;99.90
60868;DHT22;46702;48.370;10.794;2023-05-20T10:32:54;18.70;99.90
60868;DHT22;46702;48.370;10.794;2023-05-20T10:35:25;18.90;99.90
60868;DHT22;46702;48.370;10.794;2023-05-20T10:37:52;19.20;99.90
60868;DHT22;46702;48.370;10.794;2023-05-20T10:40:20;19.40;99.90
60868;DHT22;46702;48.370;10.794;2023-05-20T10:42:46;19.90;99.90
60868;DHT22;46702;48.370;10.794;2023-05-20T10:45:24;19.90;99.90
60868;DHT22;46702;48.370;10.794;2023-05-20T10:47:55;19.80;99.90
60868;DHT22;46702;48.370;10.794;2023-05-20T10:50:28;19.90;99.90
60868;DHT22;46702;48.370;10.794;2023-05-20T10:53:05;19.90;99.90
60868;DHT22;46702;48.370;10.794;2023-05-20T10:55:38;19.70;99.90
60868;DHT22;46702;48.370;10.794;2023-05-20T10:58:04;19.80;99.90
60868;DHT22;46702;48.370;10.794;2023-05-20T11:00:34;19.60;99.90
60868;DHT22;46702;48.370;10.794;2023-05-20T11:03:01;19.50;99.90
60868;DHT22;46702;48.370;10.794;2023-05-20T11:05:28;19.80;99.90
60868;DHT22;46702;48.370;10.794;2023-05-20T11:08:05;19.80;99.90
60868;DHT22;46702;48.370;10.794;2023-05-20T11:10:33;19.60;99.90
60868;DHT22;46702;48.370;10.794;2023-05-20T11:13:00;19.60;99.90
60868;DHT22;46702;48.370;10.794;2023-05-20T11:15:26;19.70;99.90
60868;DHT22;46702;48.370;10.794;2023-05-20T11:17:56;19.80;99.90
60868;DHT22;46702;48.370;10.794;2023-05-20T11:20:23;19.80;99.90
60868;DHT22;46702;48.370;10.794;2023-05-20T11:22:55;19.80;99.90
60868;DHT22;46702;48.370;10.794;2023-05-20T11:25:22;20.10;99.90
60868;DHT22;46702;48.370;10.794;2023-05-20T11:27:48;20.20;99.90
60868;DHT22;46702;48.370;10.794;2023-05-20T11:30:15;20.20;99.90
60868;DHT22;46702;48.370;10.794;2023-05-20T11:32:55;20.20;99.90
60868;DHT22;46702;48.370;10.794;2023-05-20T11:35:22;20.30;99.90
60868;DHT22;46702;48.370;10.794;2023-05-20T11:38:00;20.00;99.90
60868;DHT22;46702;48.370;10.794;2023-05-20T11:40:31;20.00;99.90
60868;DHT22;46702;48.370;10.794;2023-05-20T11:42:59;20.10;99.90
60868;DHT22;46702;48.370;10.794;2023-05-20T11:45:25;20.20;99.90
60868;DHT22;46702;48.370;10.794;2023-05-20T11:48:04;20.20;99.90
60868;DHT22;46702;48.370;10.794;2023-05-20T11:50:35;20.20;99.90
60868;DHT22;46702;48.370;10.794;2023-05-20T11:53:05;20.00;99.90
60868;DHT22;46702;48.370;10.794;2023-05-20T11:55:32;20.20;99.90
60868;DHT22;46702;48.370;10.794;2023-05-20T11:57:58;20.40;99.90
60868;DHT22;46702;48.370;10.794;2023-05-20T12:00:25;20.70;99.90
60868;DHT22;46702;48.370;10.794;2023-05-20T12:02:50;21.00;99.90
60868;DHT22;46702;48.370;10.794;2023-05-20T12:05:16;21.20;99.90
60868;DHT22;46702;48.370;10.794;2023-05-20T12:07:42;21.20;99.90
60868;DHT22;46702;48.370;10.794;2023-05-20T12:10:08;21.20;99.90
60868;DHT22;46702;48.370;10.794;2023-05-20T12:12:34;21.50;99.90
60868;DHT22;46702;48.370;10.794;2023-05-20T12:15:02;21.50;99.90
60868;DHT22;46702;48.370;10.794;2023-05-20T12:17:28;21.50;99.90
60868;DHT22;46702;48.370;10.794;2023-05-20T12:19:54;21.30;99.90
60868;DHT22;46702;48.370;10.794;2023-05-20T12:22:23;21.10;99.90
60868;DHT22;46702;48.370;10.794;2023-05-20T12:24:56;21.20;99.90
60868;DHT22;46702;48.370;10.794;2023-05-20T12:27:22;21.40;99.90
60868;DHT22;46702;48.370;10.794;2023-05-20T12:29:48;21.50;99.90
60868;DHT22;46702;48.370;10.794;2023-05-20T12:32:13;21.70;99.90
60868;DHT22;46702;48.370;10.794;2023-05-20T12:34:39;21.60;99.90
60868;DHT22;46702;48.370;10.794;2023-05-20T12:37:05;21.60;99.90
60868;DHT22;46702;48.370;10.794;2023-05-20T12:39:31;21.30;99.90
60868;DHT22;46702;48.370;10.794;2023-05-20T12:41:57;21.30;99.90
60868;DHT22;46702;48.370;10.794;2023-05-20T12:44:22;21.40;99.90
60868;DHT22;46702;48.370;10.794;2023-05-20T12:46:48;21.40;99.90
60868;DHT22;46702;48.370;10.794;2023-05-20T12:49:14;21.40;99.90
60868;DHT22;46702;48.370;10.794;2023-05-20T12:51:42;21.40;99.90
60868;DHT22;46702;48.370;10.794;2023-05-20T12:54:08;21.50;99.90
60868;DHT22;46702;48.370;10.794;2023-05-20T12:56:37;21.50;99.90
60868;DHT22;46702;48.370;10.794;2023-05-20T12:59:03;21.40;99.90
60868;DHT22;46702;48.370;10.794;2023-05-20T13:01:29;21.40;99.90
60868;DHT22;46702;48.370;10.794;2023-05-20T13:03:58;21.30;99.90
60868;DHT22;46702;48.370;10.794;2023-05-20T13:06:24;21.40;99.90
60868;DHT22;46702;48.370;10.794;2023-05-20T13:08:50;21.60;99.90
60868;DHT22;46702;48.370;10.794;2023-05-20T13:11:16;21.80;99.90
60868;DHT22;46702;48.370;10.794;2023-05-20T13:13:42;21.90;99.90
60868;DHT22;46702;48.370;10.794;2023-05-20T13:16:10;21.80;99.90
60868;DHT22;46702;48.370;10.794;2023-05-20T13:18:36;22.00;99.90
60868;DHT22;46702;48.370;10.794;2023-05-20T13:21:02;21.90;99.90
60868;DHT22;46702;48.370;10.794;2023-05-20T13:23:27;21.90;99.90
60868;DHT22;46702;48.370;10.794;2023-05-20T13:25:53;22.00;99.90
60868;DHT22;46702;48.370;10.794;2023-05-20T13:28:22;22.20;99.90
60868;DHT22;46702;48.370;10.794;2023-05-20T13:30:50;22.40;99.90
60868;DHT22;46702;48.370;10.794;2023-05-20T13:33:16;22.40;99.90
60868;DHT22;46702;48.370;10.794;2023-05-20T13:35:42;22.60;99.90
60868;DHT22;46702;48.370;10.794;2023-05-20T13:38:07;22.50;99.90
60868;DHT22;46702;48.370;10.794;2023-05-20T13:40:34;22.40;99.90
60868;DHT22;46702;48.370;10.794;2023-05-20T13:43:00;22.70;99.90
60868;DHT22;46702;48.370;10.794;2023-05-20T13:45:25;22.90;99.90
60868;DHT22;46702;48.370;10.794;2023-05-20T13:47:51;23.00;99.90
60868;DHT22;46702;48.370;10.794;2023-05-20T13:50:18;23.00;99.90
60868;DHT22;46702;48.370;10.794;2023-05-20T13:52:44;23.00;99.90
60868;DHT22;46702;48.370;10.794;2023-05-20T13:55:09;23.20;99.90
60868;DHT22;46702;48.370;10.794;2023-05-20T13:57:35;23.20;99.90
60868;DHT22;46702;48.370;10.794;2023-05-20T14:00:01;23.20;99.90
60868;DHT22;46702;48.370;10.794;2023-05-20T14:02:27;23.10;99.90
60868;DHT22;46702;48.370;10.794;2023-05-20T14:04:54;22.90;99.90
60868;DHT22;46702;48.370;10.794;2023-05-20T14:07:20;22.80;99.90
60868;DHT22;46702;48.370;10.794;2023-05-20T14:09:46;22.40;99.90
60868;DHT22;46702;48.370;10.794;2023-05-20T14:12:11;22.30;99.90
60868;DHT22;46702;48.370;10.794;2023-05-20T14:14:37;22.20;99.90
60868;DHT22;46702;48.370;10.794;2023-05-20T14:17:03;22.10;99.90
60868;DHT22;46702;48.370;10.794;2023-05-20T14:19:28;22.10;99.90
60868;DHT22;46702;48.370;10.794;2023-05-20T14:21:54;22.10;99.90
60868;DHT22;46702;48.370;10.794;2023-05-20T14:24:20;22.10;99.90
60868;DHT22;46702;48.370;10.794;2023-05-20T14:26:45;22.20;99.90
60868;DHT22;46702;48.370;10.794;2023-05-20T14:29:11;22.00;99.90
60868;DHT22;46702;48.370;10.794;2023-05-20T14:31:37;21.90;99.90
60868;DHT22;46702;48.370;10.794;2023-05-20T14:34:03;22.10;99.90
60868;DHT22;46702;48.370;10.794;2023-05-20T14:36:29;22.20;99.90
60868;DHT22;46702;48.370;10.794;2023-05-20T14:38:55;22.50;99.90
60868;DHT22;46702;48.370;10.794;2023-05-20T14:41:20;22.50;99.90
60868;DHT22;46702;48.370;10.794;2023-05-20T14:43:46;22.50;99.90
60868;DHT22;46702;48.370;10.794;2023-05-20T14:46:12;22.70;99.90
60868;DHT22;46702;48.370;10.794;2023-05-20T14:48:38;22.90;99.90
60868;DHT22;46702;48.370;10.794;2023-05-20T14:51:06;22.80;99.90
60868;DHT22;46702;48.370;10.794;2023-05-20T14:53:32;22.90;99.90
60868;DHT22;46702;48.370;10.794;2023-05-20T14:55:58;22.80;99.90
60868;DHT22;46702;48.370;10.794;2023-05-20T14:58:26;22.70;99.90
60868;DHT22;46702;48.370;10.794;2023-05-20T15:00:52;22.90;99.90
60868;DHT22;46702;48.370;10.794;2023-05-20T15:03:17;23.10;99.90
60868;DHT22;46702;48.370;10.794;2023-05-20T15:05:43;22.90;99.90
60868;DHT22;46702;48.370;10.794;2023-05-20T15:08:09;23.00;99.90
60868;DHT22;46702;48.370;10.794;2023-05-20T15:10:35;22.90;99.90
60868;DHT22;46702;48.370;10.794;2023-05-20T15:13:00;22.90;99.90
60868;DHT22;46702;48.370;10.794;2023-05-20T15:15:26;23.00;99.90
60868;DHT22;46702;48.370;10.794;2023-05-20T15:17:52;22.90;99.90
60868;DHT22;46702;48.370;10.794;2023-05-20T15:20:17;22.90;99.90
60868;DHT22;46702;48.370;10.794;2023-05-20T15:22:43;22.90;99.90